Time;durP1;ratioP1;P1;durP2;ratioP2;P2;SDS_P1;SDS_P2;PMS_P1;PMS_P2;Temp;Humidity;BMP_temperature;BMP_pressure;BME280_temperature;BME280_humidity;BME280_pressure;Samples;Min_cycle;Max_cycle;Signal;HPM_P1;HPM_P2
2021/11/08 00:01:35;;;;;;;48.35;5.07;;;;;;;7.47;100.00;101187.22;5020459;28;20041;-73
2021/11/08 00:04:02;;;;;;;37.45;4.40;;;;;;;7.44;100.00;101196.13;5020632;28;20102;-73
2021/11/08 00:06:28;;;;;;;28.23;4.40;;;;;;;7.49;100.00;101206.19;4990665;28;20053;-73
2021/11/08 00:08:54;;;;;;;33.25;4.70;;;;;;;7.47;100.00;101197.66;5008913;28;20053;-75
2021/11/08 00:11:19;;;;;;;29.75;4.15;;;;;;;7.35;100.00;101202.03;5008828;28;20471;-73
2021/11/08 00:13:45;;;;;;;33.33;4.07;;;;;;;7.30;100.00;101207.56;5021409;28;20033;-71
2021/11/08 00:16:29;;;;;;;33.67;4.43;;;;;;;7.31;100.00;101213.63;5010008;28;20533;-72
2021/11/08 00:19:14;;;;;;;40.42;4.40;;;;;;;7.27;100.00;101218.25;5008500;28;20115;-73
2021/11/08 00:21:45;;;;;;;30.92;4.50;;;;;;;7.32;100.00;101217.91;5005110;28;20531;-75
2021/11/08 00:24:13;;;;;;;35.17;4.38;;;;;;;7.37;100.00;101216.63;4991363;28;20120;-76
2021/11/08 00:26:39;;;;;;;31.77;4.15;;;;;;;7.39;100.00;101222.53;4995363;28;20038;-76
2021/11/08 00:29:04;;;;;;;37.50;3.80;;;;;;;7.38;100.00;101226.13;5009395;28;20041;-76
2021/11/08 00:31:30;;;;;;;38.13;3.45;;;;;;;7.34;100.00;101227.25;5013361;28;20048;-74
2021/11/08 00:33:55;;;;;;;35.13;3.70;;;;;;;7.31;100.00;101229.25;4989935;28;20753;-75
2021/11/08 00:36:21;;;;;;;40.75;4.15;;;;;;;7.30;100.00;101222.41;5017917;28;20115;-75
2021/11/08 00:38:47;;;;;;;28.95;3.53;;;;;;;7.29;100.00;101231.16;5008112;28;20138;-75
2021/11/08 00:41:13;;;;;;;32.97;3.70;;;;;;;7.33;100.00;101237.84;4990426;28;20037;-74
2021/11/08 00:43:39;;;;;;;30.77;3.38;;;;;;;7.32;100.00;101236.16;4987214;28;20072;-75
2021/11/08 00:46:06;;;;;;;31.00;3.92;;;;;;;7.32;100.00;101241.38;4996268;28;20144;-75
2021/11/08 00:48:35;;;;;;;27.02;3.67;;;;;;;7.32;100.00;101238.78;4994657;28;20121;-75
2021/11/08 00:51:03;;;;;;;27.95;3.70;;;;;;;7.25;100.00;101248.81;5030255;28;20037;-73
2021/11/08 00:53:30;;;;;;;27.80;3.83;;;;;;;7.22;100.00;101246.44;4988316;28;20041;-74
2021/11/08 00:55:58;;;;;;;29.60;4.18;;;;;;;7.22;100.00;101251.66;5007294;28;20087;-76
2021/11/08 00:58:32;;;;;;;24.85;3.38;;;;;;;7.19;100.00;101246.66;5021430;28;20063;-73
2021/11/08 01:01:02;;;;;;;25.27;3.65;;;;;;;7.26;100.00;101253.09;5007320;28;20029;-72
2021/11/08 01:03:28;;;;;;;23.05;3.53;;;;;;;7.21;100.00;101255.22;4985619;28;20045;-73
2021/11/08 01:05:54;;;;;;;19.15;3.15;;;;;;;7.20;100.00;101259.59;5020734;28;20059;-73
2021/11/08 01:08:19;;;;;;;19.85;3.22;;;;;;;7.19;100.00;101259.72;4990628;28;20506;-75
2021/11/08 01:10:45;;;;;;;22.75;3.30;;;;;;;7.22;100.00;101262.09;5003216;28;20766;-74
2021/11/08 01:13:11;;;;;;;23.23;2.80;;;;;;;7.21;100.00;101268.25;4986684;28;20036;-73
2021/11/08 01:15:37;;;;;;;19.92;3.05;;;;;;;7.21;100.00;101269.09;5024952;28;20030;-74
2021/11/08 01:18:03;;;;;;;18.15;2.63;;;;;;;7.19;100.00;101281.41;5021060;28;20047;-74
2021/11/08 01:20:33;;;;;;;16.95;2.90;;;;;;;7.29;100.00;101283.34;4998226;28;20747;-76
2021/11/08 01:23:04;;;;;;;21.98;3.17;;;;;;;7.28;100.00;101282.53;5005715;28;20124;-75
2021/11/08 01:25:31;;;;;;;18.55;2.75;;;;;;;7.33;100.00;101288.25;5010336;28;20041;-74
2021/11/08 01:27:59;;;;;;;20.13;2.80;;;;;;;7.28;100.00;101289.53;5011240;28;20160;-75
2021/11/08 01:30:25;;;;;;;20.10;2.65;;;;;;;7.29;100.00;101294.66;5015040;28;20100;-75
2021/11/08 01:32:57;;;;;;;17.20;3.20;;;;;;;7.23;100.00;101292.47;5006380;28;20474;-74
2021/11/08 01:38:09;;;;;;;23.65;2.60;;;;;;;7.17;100.00;101305.94;5006326;28;20033;-75
2021/11/08 01:40:36;;;;;;;28.02;3.20;;;;;;;7.16;100.00;101314.75;4985784;28;20045;-75
2021/11/08 01:43:04;;;;;;;25.90;3.30;;;;;;;7.20;100.00;101327.44;4985213;28;20045;-73
2021/11/08 01:45:30;;;;;;;30.85;3.38;;;;;;;7.29;100.00;101314.66;4984846;28;20034;-75
2021/11/08 01:47:56;;;;;;;19.92;2.72;;;;;;;7.27;100.00;101316.56;4989133;28;20037;-75
2021/11/08 01:50:23;;;;;;;19.92;3.25;;;;;;;7.22;100.00;101324.72;5008546;28;20051;-75
2021/11/08 01:52:49;;;;;;;23.80;3.03;;;;;;;7.20;100.00;101324.84;5023992;28;20036;-74
2021/11/08 01:55:15;;;;;;;28.35;3.10;;;;;;;7.14;100.00;101335.72;5000806;28;20037;-74
2021/11/08 01:57:42;;;;;;;25.50;3.45;;;;;;;7.12;100.00;101324.56;4991363;28;20122;-73
2021/11/08 02:00:10;;;;;;;26.35;3.45;;;;;;;7.11;100.00;101333.31;5008407;28;20079;-76
2021/11/08 02:02:36;;;;;;;38.85;3.92;;;;;;;7.08;100.00;101336.13;5023274;28;20033;-75
2021/11/08 02:05:05;;;;;;;20.38;3.55;;;;;;;7.08;100.00;101333.53;5024944;28;20061;-75
2021/11/08 02:07:31;;;;;;;22.38;3.20;;;;;;;7.10;100.00;101334.28;5020115;28;20095;-76
2021/11/08 02:09:58;;;;;;;36.33;3.40;;;;;;;7.16;100.00;101333.00;5002101;28;20033;-75
2021/11/08 02:12:25;;;;;;;27.00;3.42;;;;;;;7.18;100.00;101341.56;5024795;28;20051;-74
2021/11/08 02:14:51;;;;;;;28.73;3.33;;;;;;;7.20;100.00;101344.88;5014445;28;20037;-75
2021/11/08 02:17:17;;;;;;;27.55;3.55;;;;;;;7.21;100.00;101357.81;5008243;28;20030;-76
2021/11/08 02:19:43;;;;;;;23.45;3.30;;;;;;;7.21;100.00;101351.75;5022570;28;20040;-75
2021/11/08 02:22:08;;;;;;;27.00;3.20;;;;;;;7.18;100.00;101362.41;5005577;28;20037;-76
2021/11/08 02:24:36;;;;;;;36.53;4.32;;;;;;;7.17;100.00;101352.91;5028453;28;20037;-75
2021/11/08 02:27:03;;;;;;;30.88;3.72;;;;;;;7.22;100.00;101354.25;5028849;28;20228;-73
2021/11/08 02:29:30;;;;;;;27.45;3.53;;;;;;;7.19;100.00;101366.69;4989633;28;20438;-75
2021/11/08 02:31:59;;;;;;;35.42;3.75;;;;;;;7.18;100.00;101368.47;5025196;28;20394;-75
2021/11/08 02:34:24;;;;;;;33.30;3.63;;;;;;;7.15;100.00;101370.47;5023759;28;20164;-76
2021/11/08 02:36:50;;;;;;;30.60;3.78;;;;;;;7.14;100.00;101377.47;5007517;28;20049;-76
2021/11/08 02:39:26;;;;;;;34.55;3.38;;;;;;;7.19;100.00;101377.94;5005509;28;20549;-74
2021/11/08 02:41:52;;;;;;;27.98;3.72;;;;;;;7.18;100.00;101383.28;4995793;28;20136;-75
2021/11/08 02:44:21;;;;;;;27.85;3.05;;;;;;;7.13;100.00;101386.22;4995315;28;20120;-74
2021/11/08 02:46:48;;;;;;;24.90;2.72;;;;;;;7.07;100.00;101385.84;5028439;28;20040;-76
2021/11/08 02:49:15;;;;;;;24.23;2.72;;;;;;;7.05;100.00;101387.72;5012568;28;20033;-74
2021/11/08 02:51:53;;;;;;;21.40;2.65;;;;;;;7.06;100.00;101386.75;4995054;28;20034;-76
2021/11/08 02:54:33;;;;;;;17.15;2.70;;;;;;;7.08;100.00;101387.47;5001915;28;20025;-76
2021/11/08 02:56:59;;;;;;;23.73;2.53;;;;;;;7.09;100.00;101390.00;5021670;28;20505;-74
2021/11/08 02:59:27;;;;;;;25.92;3.10;;;;;;;7.07;100.00;101394.47;5017191;28;20061;-74
2021/11/08 03:01:54;;;;;;;18.75;2.53;;;;;;;7.09;100.00;101402.22;5010455;28;20091;-75
2021/11/08 03:04:24;;;;;;;19.45;2.13;;;;;;;7.09;100.00;101403.03;4991181;28;20037;-75
2021/11/08 03:06:51;;;;;;;14.45;2.47;;;;;;;7.04;100.00;101402.50;5009271;28;20049;-74
2021/11/08 03:09:20;;;;;;;26.77;2.78;;;;;;;7.00;100.00;101401.06;5007009;28;20036;-73
2021/11/08 03:11:47;;;;;;;24.38;2.78;;;;;;;6.99;100.00;101405.47;5008843;28;20033;-74
2021/11/08 03:14:21;;;;;;;28.00;2.58;;;;;;;6.95;100.00;101403.16;5018865;28;20375;-74
2021/11/08 03:16:56;;;;;;;21.02;2.60;;;;;;;7.00;100.00;101419.31;5024140;28;20056;-74
2021/11/08 03:21:54;;;;;;;17.88;3.33;;;;;;;6.99;100.00;101415.06;4994736;28;20533;-74
2021/11/08 03:24:41;;;;;;;25.20;3.30;;;;;;;6.99;100.00;101428.09;5007756;28;20045;-74
2021/11/08 03:30:07;;;;;;;21.52;3.20;;;;;;;7.02;100.00;101433.09;5018833;28;20041;-75
2021/11/08 03:32:35;;;;;;;20.42;2.80;;;;;;;6.99;100.00;101428.94;4982757;28;20038;-74
2021/11/08 03:35:04;;;;;;;22.98;2.95;;;;;;;7.02;100.00;101433.09;4983726;28;20037;-74
2021/11/08 03:37:37;;;;;;;22.70;3.13;;;;;;;7.04;100.00;101433.00;5024895;28;20407;-73
2021/11/08 03:40:09;;;;;;;24.80;3.47;;;;;;;7.03;100.00;101442.59;4996551;28;20041;-73
2021/11/08 03:42:35;;;;;;;20.05;3.33;;;;;;;6.98;100.00;101442.06;4991014;28;20299;-73
2021/11/08 03:45:01;;;;;;;25.42;3.25;;;;;;;6.95;100.00;101440.53;5001279;28;20045;-74
2021/11/08 03:47:27;;;;;;;24.70;3.03;;;;;;;6.97;100.00;101450.84;5020101;28;20491;-75
2021/11/08 03:49:53;;;;;;;23.58;2.97;;;;;;;6.93;100.00;101444.16;5023235;28;20080;-75
2021/11/08 03:52:19;;;;;;;20.20;2.65;;;;;;;6.92;100.00;101455.53;5009612;28;20083;-75
2021/11/08 03:54:45;;;;;;;21.00;3.13;;;;;;;6.96;100.00;101454.38;5023962;28;20033;-75
2021/11/08 03:57:10;;;;;;;22.90;2.78;;;;;;;6.95;100.00;101458.78;5021849;28;20071;-75
2021/11/08 03:59:36;;;;;;;25.17;3.17;;;;;;;6.98;100.00;101458.53;5004730;28;20050;-74
2021/11/08 04:02:02;;;;;;;26.75;3.50;;;;;;;6.98;100.00;101461.16;5028246;28;20112;-76
2021/11/08 04:04:28;;;;;;;26.90;2.78;;;;;;;6.97;100.00;101469.94;4987292;28;20549;-75
2021/11/08 04:06:54;;;;;;;28.55;3.33;;;;;;;6.92;100.00;101456.38;5008211;28;20120;-73
2021/11/08 04:09:20;;;;;;;21.15;2.72;;;;;;;6.94;100.00;101471.91;4996480;28;20041;-72
2021/11/08 04:11:46;;;;;;;26.13;2.90;;;;;;;6.93;100.00;101483.28;5013556;28;20037;-75
2021/11/08 04:14:13;;;;;;;34.78;3.80;;;;;;;6.93;100.00;101480.66;5006133;28;20546;-74
2021/11/08 04:16:40;;;;;;;28.70;3.42;;;;;;;6.93;100.00;101480.66;5023660;28;20381;-72
2021/11/08 04:19:07;;;;;;;26.10;3.45;;;;;;;6.90;100.00;101473.91;5027017;28;20174;-75
2021/11/08 04:21:36;;;;;;;36.83;3.80;;;;;;;6.92;100.00;101484.22;5024099;28;20487;-75
2021/11/08 04:24:03;;;;;;;27.52;3.55;;;;;;;6.94;100.00;101480.56;4977120;28;20043;-75
2021/11/08 04:26:29;;;;;;;25.60;3.95;;;;;;;6.93;100.00;101489.34;4994251;28;20514;-75
2021/11/08 04:29:00;;;;;;;24.50;3.60;;;;;;;6.95;100.00;101484.84;5002529;28;20029;-76
2021/11/08 04:31:28;;;;;;;33.47;3.85;;;;;;;6.91;100.00;101492.97;5004904;28;20029;-76
2021/11/08 04:33:57;;;;;;;30.25;4.30;;;;;;;6.92;100.00;101492.88;4986181;28;20040;-76
2021/11/08 04:52:40;;;;;;;30.58;3.55;;;;;;;6.96;100.00;101509.16;5018307;28;20524;-75
2021/11/08 05:30:06;;;;;;;27.75;3.13;;;;;;;6.71;100.00;101539.50;5030332;28;20610;-74
2021/11/08 05:32:35;;;;;;;26.35;3.20;;;;;;;6.68;100.00;101537.09;4972355;28;20057;-75
2021/11/08 05:35:02;;;;;;;25.58;2.92;;;;;;;6.74;100.00;101544.53;4993279;28;20037;-75
2021/11/08 05:37:28;;;;;;;35.35;3.42;;;;;;;6.67;100.00;101538.03;4993979;28;20052;-74
2021/11/08 05:39:57;;;;;;;27.58;2.80;;;;;;;6.70;100.00;101550.84;4984479;28;20041;-75
2021/11/08 05:42:24;;;;;;;24.80;2.83;;;;;;;6.66;100.00;101546.78;5004040;28;20152;-76
2021/11/08 05:44:51;;;;;;;24.98;3.15;;;;;;;6.65;100.00;101557.28;5003267;28;20041;-71
2021/11/08 05:47:17;;;;;;;18.92;2.67;;;;;;;6.65;100.00;101562.50;5013374;28;20040;-76
2021/11/08 05:49:44;;;;;;;32.42;3.20;;;;;;;6.64;100.00;101551.25;4989832;28;20041;-75
2021/11/08 05:52:13;;;;;;;20.75;2.88;;;;;;;6.62;100.00;101561.78;5026472;28;20077;-75
2021/11/08 05:54:38;;;;;;;26.92;2.60;;;;;;;6.55;100.00;101559.69;5001679;28;20106;-74
2021/11/08 06:51:31;;;;;;;23.00;2.17;;;;;;;5.53;100.00;101627.66;5030499;28;20038;-75
2021/11/08 06:54:01;;;;;;;29.42;3.10;;;;;;;5.55;100.00;101634.44;5028212;28;20120;-75
2021/11/08 06:56:29;;;;;;;23.15;2.33;;;;;;;5.49;100.00;101634.81;5024387;28;20029;-75
2021/11/08 06:58:57;;;;;;;20.35;2.60;;;;;;;5.44;100.00;101637.72;5021226;28;20033;-75
2021/11/08 07:01:24;;;;;;;17.67;2.30;;;;;;;5.47;100.00;101647.91;4998231;28;20095;-75
2021/11/08 07:03:49;;;;;;;18.98;2.30;;;;;;;5.46;100.00;101648.88;5007534;28;20099;-74
2021/11/08 07:06:15;;;;;;;20.05;2.10;;;;;;;5.48;100.00;101648.75;5007237;28;20037;-75
2021/11/08 07:08:41;;;;;;;26.10;3.20;;;;;;;5.49;100.00;101647.81;5018951;28;20099;-74
2021/11/08 07:11:06;;;;;;;24.38;2.78;;;;;;;5.49;100.00;101649.59;5000745;28;20438;-75
2021/11/08 07:13:32;;;;;;;25.50;3.03;;;;;;;5.51;100.00;101663.34;5026099;28;20105;-74
2021/11/08 07:15:57;;;;;;;19.77;2.97;;;;;;;5.56;100.00;101669.13;4998664;28;20040;-75
2021/11/08 07:18:23;;;;;;;28.38;3.15;;;;;;;5.54;100.00;101671.81;5009502;28;20073;-74
2021/11/08 07:20:49;;;;;;;22.13;3.25;;;;;;;5.50;100.00;101670.34;4994478;28;20068;-75
2021/11/08 07:23:15;;;;;;;23.58;3.17;;;;;;;5.47;100.00;101673.94;5015260;28;20604;-75
2021/11/08 07:25:41;;;;;;;15.65;2.45;;;;;;;5.44;100.00;101671.53;5011585;28;20110;-75
2021/11/08 07:28:10;;;;;;;23.77;2.50;;;;;;;5.45;100.00;101682.78;5009524;28;20482;-75
2021/11/08 07:30:38;;;;;;;19.80;3.38;;;;;;;5.47;100.00;101686.94;5020874;28;20034;-75
2021/11/08 07:33:04;;;;;;;19.63;2.85;;;;;;;5.42;100.00;101677.72;5013643;28;20125;-75
2021/11/08 07:35:29;;;;;;;12.38;2.22;;;;;;;5.42;100.00;101688.16;5023235;28;20143;-75
2021/11/08 07:37:55;;;;;;;22.10;3.28;;;;;;;5.52;100.00;101696.25;4996191;28;20052;-75
2021/11/08 07:40:20;;;;;;;20.33;3.17;;;;;;;5.52;100.00;101689.28;5020107;28;20075;-74
2021/11/08 07:42:48;;;;;;;24.95;3.28;;;;;;;5.64;100.00;101687.72;4993786;28;20137;-74
2021/11/08 07:45:13;;;;;;;28.52;3.67;;;;;;;5.73;100.00;101688.94;4991087;28;20056;-75
2021/11/08 07:47:39;;;;;;;19.90;2.83;;;;;;;5.83;100.00;101695.28;5009945;28;20526;-75
2021/11/08 07:50:05;;;;;;;28.70;3.95;;;;;;;5.92;100.00;101702.53;4994546;28;20041;-75
2021/11/08 07:52:31;;;;;;;22.75;3.42;;;;;;;5.94;100.00;101700.66;5008856;28;20061;-74
2021/11/08 07:54:56;;;;;;;21.90;3.22;;;;;;;5.96;100.00;101713.63;5011967;28;20220;-75
2021/11/08 07:57:22;;;;;;;19.80;2.78;;;;;;;5.97;100.00;101703.13;4979731;28;20038;-75
2021/11/08 07:59:48;;;;;;;19.25;3.15;;;;;;;6.04;100.00;101709.63;4978941;28;20045;-74
2021/11/08 08:02:14;;;;;;;22.98;3.45;;;;;;;6.13;100.00;101712.59;5009826;28;20036;-75
2021/11/08 08:04:40;;;;;;;29.50;3.65;;;;;;;6.17;100.00;101717.53;5035390;28;20037;-74
2021/11/08 08:07:06;;;;;;;29.10;3.53;;;;;;;6.18;100.00;101719.22;5010465;28;20037;-75
2021/11/08 08:09:32;;;;;;;27.95;3.55;;;;;;;6.21;100.00;101712.97;5006098;28;20159;-75
2021/11/08 08:11:58;;;;;;;26.25;3.35;;;;;;;6.32;100.00;101723.56;5008066;28;20406;-74
2021/11/08 08:14:24;;;;;;;28.25;3.35;;;;;;;6.37;100.00;101720.69;5023562;28;20069;-76
2021/11/08 08:16:49;;;;;;;29.77;3.00;;;;;;;6.49;100.00;101719.91;5004802;28;20131;-76
2021/11/08 08:19:15;;;;;;;25.73;3.28;;;;;;;6.66;100.00;101726.66;4998227;28;20122;-75
2021/11/08 08:21:41;;;;;;;29.42;3.10;;;;;;;6.76;100.00;101726.91;5025549;28;20430;-75
2021/11/08 08:24:07;;;;;;;25.33;3.00;;;;;;;6.84;100.00;101727.28;5029925;28;20086;-76
2021/11/08 08:26:36;;;;;;;20.40;2.55;;;;;;;6.90;100.00;101729.50;5026384;28;20469;-75
2021/11/08 08:29:06;;;;;;;19.52;2.38;;;;;;;7.04;100.00;101719.94;5002800;28;20044;-74
2021/11/08 08:31:38;;;;;;;17.55;2.10;;;;;;;7.00;100.00;101727.94;4994481;28;20038;-76
2021/11/08 08:34:04;;;;;;;17.73;2.65;;;;;;;7.04;100.00;101725.97;4987908;28;20041;-73
2021/11/08 08:36:30;;;;;;;18.88;2.50;;;;;;;7.00;100.00;101724.50;4987382;28;20029;-75
2021/11/08 08:38:56;;;;;;;17.00;2.72;;;;;;;7.04;100.00;101719.94;5029631;28;20833;-75
2021/11/08 08:41:22;;;;;;;18.38;2.60;;;;;;;7.00;100.00;101725.34;4996896;28;20107;-75
2021/11/08 08:43:48;;;;;;;13.38;2.15;;;;;;;7.11;100.00;101718.59;5009553;28;20077;-73
2021/11/08 08:46:15;;;;;;;17.02;2.40;;;;;;;7.13;100.00;101727.16;5008062;28;20113;-76
2021/11/08 08:48:42;;;;;;;18.88;2.75;;;;;;;7.24;100.00;101722.09;5007307;28;20536;-74
2021/11/08 08:51:08;;;;;;;19.63;2.20;;;;;;;7.26;100.00;101725.44;5022839;28;20127;-75
2021/11/08 08:53:36;;;;;;;17.27;2.75;;;;;;;7.22;100.00;101718.75;4997239;28;20025;-76
2021/11/08 08:56:01;;;;;;;19.83;2.55;;;;;;;7.28;100.00;101720.09;5009860;28;20026;-75
2021/11/08 08:58:28;;;;;;;22.98;2.95;;;;;;;7.30;100.00;101729.50;5008634;28;20526;-75
2021/11/08 09:00:53;;;;;;;21.52;2.67;;;;;;;7.30;100.00;101733.91;5013608;28;20041;-75
2021/11/08 09:03:19;;;;;;;21.27;2.80;;;;;;;7.34;100.00;101738.78;5021220;28;20036;-73
2021/11/08 09:05:47;;;;;;;13.60;2.50;;;;;;;7.43;100.00;101736.53;5009803;28;20080;-74
2021/11/08 09:08:13;;;;;;;18.40;3.00;;;;;;;7.45;100.00;101740.69;4995671;28;20040;-75
2021/11/08 09:10:40;;;;;;;22.50;2.90;;;;;;;7.50;100.00;101737.81;5023686;28;20069;-74
2021/11/08 09:13:06;;;;;;;21.23;2.75;;;;;;;7.60;100.00;101742.28;5026566;28;20050;-75
2021/11/08 09:15:34;;;;;;;20.27;3.05;;;;;;;7.75;100.00;101747.44;5006729;28;20065;-75
2021/11/08 09:18:00;;;;;;;15.43;2.67;;;;;;;7.95;100.00;101743.47;5020316;28;20453;-75
2021/11/08 09:20:29;;;;;;;15.75;2.70;;;;;;;8.08;100.00;101752.16;5026399;28;20034;-75
2021/11/08 09:22:55;;;;;;;22.15;2.70;;;;;;;8.06;100.00;101747.94;5019974;28;20037;-75
2021/11/08 09:25:24;;;;;;;20.90;2.55;;;;;;;7.99;100.00;101751.00;5003581;28;20133;-75
2021/11/08 09:27:52;;;;;;;11.57;2.10;;;;;;;7.97;100.00;101762.50;5009215;28;20159;-75
2021/11/08 09:30:21;;;;;;;22.10;2.42;;;;;;;7.88;100.00;101763.94;4988636;28;20834;-75
2021/11/08 09:32:47;;;;;;;17.83;2.25;;;;;;;7.90;100.00;101769.91;5025275;28;20402;-75
2021/11/08 09:35:13;;;;;;;13.55;2.47;;;;;;;8.08;100.00;101759.97;5019996;28;20041;-75
2021/11/08 09:37:45;;;;;;;19.80;3.17;;;;;;;8.26;100.00;101765.72;5030215;28;20038;-76
2021/11/08 09:40:15;;;;;;;16.08;2.28;;;;;;;8.37;100.00;101762.34;5016400;28;20114;-74
2021/11/08 09:42:42;;;;;;;20.67;3.00;;;;;;;8.47;100.00;101768.63;5011176;28;20048;-74
2021/11/08 09:45:10;;;;;;;15.32;2.83;;;;;;;8.50;100.00;101765.81;5029681;28;20049;-76
2021/11/08 09:47:36;;;;;;;11.93;2.13;;;;;;;8.48;100.00;101775.53;5012461;28;20044;-76
2021/11/08 09:50:06;;;;;;;16.30;2.28;;;;;;;8.40;100.00;101780.44;5016783;28;20033;-73
2021/11/08 09:52:38;;;;;;;13.68;2.05;;;;;;;8.41;100.00;101781.28;5010769;28;20203;-75
2021/11/08 09:55:07;;;;;;;18.90;2.25;;;;;;;8.46;100.00;101774.81;5022901;28;20056;-74
2021/11/08 09:57:33;;;;;;;14.02;2.05;;;;;;;8.47;100.00;101783.50;5011303;28;20156;-75
2021/11/08 09:59:59;;;;;;;13.43;2.15;;;;;;;8.57;100.00;101781.91;5031449;28;20757;-75
2021/11/08 10:02:24;;;;;;;14.52;2.22;;;;;;;8.66;100.00;101777.78;4999228;28;20124;-75
2021/11/08 10:04:50;;;;;;;13.48;2.13;;;;;;;8.77;100.00;101778.69;5013815;28;20589;-76
2021/11/08 10:07:16;;;;;;;17.52;2.30;;;;;;;8.87;100.00;101776.28;5017464;28;20120;-76
2021/11/08 10:09:42;;;;;;;12.43;2.20;;;;;;;8.99;100.00;101786.81;5027641;28;20041;-76
2021/11/08 10:12:10;;;;;;;13.27;2.53;;;;;;;8.94;100.00;101785.34;5015047;28;20033;-76
2021/11/08 10:14:38;;;;;;;11.13;2.13;;;;;;;8.93;100.00;101790.72;5003806;28;20490;-74
2021/11/08 10:17:04;;;;;;;13.00;2.00;;;;;;;8.79;100.00;101791.66;5008675;28;20134;-75
2021/11/08 10:19:35;;;;;;;18.90;2.03;;;;;;;8.63;100.00;101783.25;5026734;28;20037;-75
2021/11/08 10:22:03;;;;;;;11.82;1.95;;;;;;;8.51;100.00;101782.31;4993604;28;20590;-74
2021/11/08 10:24:33;;;;;;;16.92;2.28;;;;;;;8.50;100.00;101789.34;4999679;28;20407;-74
2021/11/08 10:27:01;;;;;;;20.65;2.75;;;;;;;8.56;100.00;101799.38;5027628;28;20030;-75
2021/11/08 10:29:27;;;;;;;9.73;1.98;;;;;;;8.55;100.00;101789.00;4996662;28;20528;-75
2021/11/08 10:31:57;;;;;;;15.85;2.50;;;;;;;8.55;100.00;101789.88;5009841;28;20029;-75
2021/11/08 10:34:25;;;;;;;17.25;2.65;;;;;;;8.61;100.00;101791.22;5022775;28;20116;-74
2021/11/08 10:37:06;;;;;;;13.60;2.53;;;;;;;8.51;100.00;101787.56;5014261;28;20046;-75
2021/11/08 10:39:34;;;;;;;22.02;2.60;;;;;;;8.51;100.00;101798.88;5026919;28;20041;-74
2021/11/08 10:42:00;;;;;;;16.70;2.47;;;;;;;8.45;100.00;101794.03;5029030;28;20484;-74
2021/11/08 10:44:29;;;;;;;20.17;2.85;;;;;;;8.46;100.00;101794.91;5008985;28;20125;-75
2021/11/08 10:47:03;;;;;;;15.50;2.95;;;;;;;8.37;100.00;101797.16;5015744;28;20125;-72
2021/11/08 10:49:35;;;;;;;22.90;2.80;;;;;;;8.42;100.00;101796.03;5014846;28;20406;-75
2021/11/08 10:52:02;;;;;;;14.27;3.60;;;;;;;8.44;100.00;101797.63;5018502;28;20045;-75
2021/11/08 10:54:41;;;;;;;18.38;2.60;;;;;;;8.48;100.00;101800.88;5025814;28;20040;-75
2021/11/08 10:57:12;;;;;;;17.67;2.80;;;;;;;8.43;100.00;101800.34;4995646;28;20199;-75
2021/11/08 10:59:44;;;;;;;23.02;3.17;;;;;;;8.56;100.00;101794.13;4996227;28;20044;-74
2021/11/08 11:02:13;;;;;;;20.35;3.47;;;;;;;8.54;100.00;101793.41;5025582;28;20033;-76
2021/11/08 11:04:56;;;;;;;17.15;3.10;;;;;;;8.46;100.00;101797.53;5030347;28;20029;-75
2021/11/08 11:07:25;;;;;;;18.88;3.53;;;;;;;8.48;100.00;101791.22;4996921;28;20107;-75
2021/11/08 11:09:59;;;;;;;19.42;3.42;;;;;;;8.51;100.00;101783.19;5026051;28;20061;-75
2021/11/08 11:12:27;;;;;;;19.00;3.40;;;;;;;8.60;100.00;101791.31;5025279;28;20044;-75
2021/11/08 11:14:58;;;;;;;19.45;3.65;;;;;;;8.62;100.00;101786.81;5002668;28;20490;-75
2021/11/08 11:17:30;;;;;;;22.83;4.03;;;;;;;8.56;100.00;101793.31;4979703;28;20443;-75
2021/11/08 11:20:14;;;;;;;17.75;3.70;;;;;;;8.61;100.00;101785.13;4996957;28;20869;-75
2021/11/08 11:22:45;;;;;;;16.40;3.90;;;;;;;8.54;100.00;101777.72;5023862;28;20040;-75
2021/11/08 11:25:14;;;;;;;20.73;4.18;;;;;;;8.55;100.00;101783.78;5011357;28;20052;-73
2021/11/08 11:27:48;;;;;;;19.15;4.35;;;;;;;8.52;100.00;101781.41;4987597;28;20128;-75
2021/11/08 11:30:21;;;;;;;21.65;5.20;;;;;;;8.46;100.00;101777.44;5023908;28;20029;-75
2021/11/08 11:33:07;;;;;;;19.35;4.50;;;;;;;8.54;100.00;101782.13;4992327;28;20825;-75
2021/11/08 11:35:40;;;;;;;18.75;4.47;;;;;;;8.54;100.00;101780.34;5026074;28;20126;-75
2021/11/08 11:38:11;;;;;;;15.15;4.10;;;;;;;8.57;100.00;101777.50;5008143;28;20040;-73
2021/11/08 11:40:44;;;;;;;21.38;4.80;;;;;;;8.52;100.00;101779.59;5005118;28;20033;-74
2021/11/08 11:43:17;;;;;;;20.38;4.22;;;;;;;8.52;100.00;101774.38;5021867;28;20487;-74
2021/11/08 11:45:52;;;;;;;22.95;4.05;;;;;;;8.53;100.00;101768.22;5018947;28;20041;-75
2021/11/08 11:48:20;;;;;;;26.58;4.50;;;;;;;8.51;100.00;101770.09;4991067;28;20812;-73
2021/11/08 11:50:46;;;;;;;18.45;4.47;;;;;;;8.57;100.00;101774.06;5023384;28;20412;-73
2021/11/08 11:53:14;;;;;;;22.83;4.78;;;;;;;8.52;100.00;101766.53;5025561;28;20032;-75
2021/11/08 11:55:41;;;;;;;23.70;5.05;;;;;;;8.50;100.00;101772.81;5011834;28;20026;-73
2021/11/08 11:58:07;;;;;;;25.13;5.50;;;;;;;8.45;100.00;101764.47;5009381;28;20030;-74
2021/11/08 12:00:39;;;;;;;24.58;5.57;;;;;;;8.37;100.00;101765.78;5023762;28;20041;-74
2021/11/08 12:03:06;;;;;;;21.73;6.00;;;;;;;8.39;100.00;101766.53;4977764;28;20069;-74
2021/11/08 12:05:34;;;;;;;16.88;5.28;;;;;;;8.39;100.00;101758.69;5006903;28;20038;-75
2021/11/08 12:08:04;;;;;;;25.63;5.38;;;;;;;8.39;100.00;101765.69;4996544;28;20029;-75
2021/11/08 12:10:30;;;;;;;21.83;5.45;;;;;;;8.37;100.00;101759.75;5017208;28;20041;-74
2021/11/08 12:12:56;;;;;;;17.67;5.70;;;;;;;8.32;100.00;101762.66;5008414;28;20110;-75
2021/11/08 12:15:30;;;;;;;16.55;4.38;;;;;;;8.41;100.00;101762.97;5025552;28;20120;-75
2021/11/08 12:18:05;;;;;;;23.58;4.63;;;;;;;8.41;100.00;101770.81;4981787;28;20130;-75
2021/11/08 12:20:30;;;;;;;20.13;4.78;;;;;;;8.35;100.00;101769.47;5009004;28;20033;-73
2021/11/08 12:22:56;;;;;;;17.23;5.22;;;;;;;8.38;100.00;101775.31;5013982;28;20612;-74
2021/11/08 12:25:26;;;;;;;20.10;4.70;;;;;;;8.36;100.00;101774.59;5027591;28;20030;-75
2021/11/08 12:27:55;;;;;;;20.52;4.68;;;;;;;8.33;100.00;101780.03;4995477;28;20069;-74
2021/11/08 12:30:33;;;;;;;19.05;4.85;;;;;;;8.34;100.00;101773.00;4998348;28;20944;-75
2021/11/08 12:33:06;;;;;;;18.67;4.30;;;;;;;8.36;100.00;101782.44;5008428;28;20033;-75
2021/11/08 12:35:34;;;;;;;18.17;3.97;;;;;;;8.37;100.00;101776.25;5022608;28;20419;-75
2021/11/08 12:38:01;;;;;;;15.93;4.05;;;;;;;8.44;100.00;101774.09;5023989;28;20030;-75
2021/11/08 12:40:31;;;;;;;29.23;5.25;;;;;;;8.39;100.00;101776.97;4997857;28;20064;-73
2021/11/08 12:42:58;;;;;;;14.88;4.22;;;;;;;8.42;100.00;101777.75;5010005;28;20038;-75
2021/11/08 12:45:27;;;;;;;17.13;4.22;;;;;;;8.37;100.00;101775.41;5002283;28;20411;-75
2021/11/08 12:48:10;;;;;;;12.43;3.40;;;;;;;8.37;100.00;101776.25;5020561;28;20087;-75
2021/11/08 12:50:39;;;;;;;14.63;3.22;;;;;;;8.46;100.00;101781.84;5002039;28;20245;-75
2021/11/08 12:53:06;;;;;;;16.08;3.25;;;;;;;8.42;100.00;101777.75;5020737;28;20780;-76
2021/11/08 12:55:42;;;;;;;22.38;3.70;;;;;;;8.37;100.00;101778.88;5001674;28;20037;-75
2021/11/08 12:58:08;;;;;;;15.95;3.80;;;;;;;8.39;100.00;101781.38;4994690;28;20025;-74
2021/11/08 13:00:40;;;;;;;17.52;3.72;;;;;;;8.41;100.00;101786.50;5002720;28;20555;-74
2021/11/08 13:03:14;;;;;;;18.67;3.63;;;;;;;8.34;100.00;101786.94;4989687;28;20707;-75
2021/11/08 13:05:44;;;;;;;15.13;3.00;;;;;;;8.35;100.00;101790.38;4993569;28;20387;-74
2021/11/08 13:08:27;;;;;;;14.65;3.30;;;;;;;8.35;100.00;101796.44;4993475;28;20033;-75
2021/11/08 13:11:10;;;;;;;16.70;3.50;;;;;;;8.32;100.00;101798.44;5022995;28;20108;-74
2021/11/08 13:13:36;;;;;;;;;;;;;;;8.28;100.00;101808.25;5022989;28;20518;-75
2021/11/08 13:16:11;;;;;;;15.82;3.10;;;;;;;8.30;100.00;101805.53;5009381;28;19964;-76